Time;durP1;ratioP1;P1;durP2;ratioP2;P2;SDS_P1;SDS_P2;PMS_P1;PMS_P2;Temp;Humidity;BMP_temperature;BMP_pressure;BME280_temperature;BME280_humidity;BME280_pressure;Samples;Min_cycle;Max_cycle;Signal;HPM_P1;HPM_P2
2022/02/08 00:02:13;;;;;;;3.65;1.60;;;4.20;99.90;;;;;;4992771;28;20041;-49
2022/02/08 00:04:39;;;;;;;2.20;1.33;;;4.20;99.90;;;;;;4992746;28;20454;-49
2022/02/08 00:07:06;;;;;;;4.53;1.50;;;4.30;99.90;;;;;;4995436;28;20054;-52
2022/02/08 00:09:33;;;;;;;4.07;1.42;;;4.30;99.90;;;;;;5008944;28;20050;-49
2022/02/08 00:12:00;;;;;;;4.63;1.73;;;4.30;99.90;;;;;;5010109;28;20076;-55
2022/02/08 00:14:26;;;;;;;3.28;1.65;;;4.30;99.90;;;;;;4995142;28;20030;-50
2022/02/08 00:16:52;;;;;;;2.25;1.13;;;4.20;99.90;;;;;;4994994;28;20050;-50
2022/02/08 00:19:18;;;;;;;2.33;1.45;;;4.20;99.90;;;;;;4994800;28;20771;-55
2022/02/08 00:21:44;;;;;;;4.50;1.95;;;4.20;99.90;;;;;;4992597;28;20372;-53
2022/02/08 00:24:09;;;;;;;4.47;1.70;;;4.20;99.90;;;;;;4994869;28;20037;-50
2022/02/08 00:26:35;;;;;;;4.53;1.40;;;4.10;99.90;;;;;;4994461;28;20470;-52
2022/02/08 00:29:01;;;;;;;2.92;1.70;;;4.20;99.90;;;;;;4994655;28;20419;-49
2022/02/08 00:31:27;;;;;;;3.97;1.63;;;4.10;99.90;;;;;;4999582;28;20044;-52
2022/02/08 00:33:53;;;;;;;4.53;1.90;;;4.10;99.90;;;;;;5014133;28;20030;-50
2022/02/08 00:36:19;;;;;;;2.25;1.13;;;4.10;99.90;;;;;;4995447;28;20037;-52
2022/02/08 00:38:44;;;;;;;4.43;1.65;;;4.00;99.90;;;;;;5028021;28;20096;-52
2022/02/08 00:41:10;;;;;;;8.18;1.77;;;4.10;99.90;;;;;;4995355;28;20075;-53
2022/02/08 00:43:46;;;;;;;5.50;1.50;;;4.10;99.90;;;;;;5014293;28;20065;-51
2022/02/08 00:46:23;;;;;;;2.35;1.33;;;4.00;99.90;;;;;;4997302;28;20046;-51
2022/02/08 00:48:56;;;;;;;3.13;1.17;;;4.00;99.90;;;;;;5013969;28;20038;-49
2022/02/08 00:51:25;;;;;;;4.05;1.23;;;3.90;99.90;;;;;;5011895;28;20048;-47
2022/02/08 00:53:51;;;;;;;3.00;1.70;;;3.80;99.90;;;;;;5014151;28;20034;-54
2022/02/08 00:56:17;;;;;;;3.78;1.55;;;3.70;99.90;;;;;;4995036;28;20137;-53
2022/02/08 00:58:42;;;;;;;3.58;2.53;;;3.70;99.90;;;;;;5014033;28;20022;-52
2022/02/08 01:01:08;;;;;;;2.50;1.27;;;3.60;99.90;;;;;;5027792;28;20076;-50
2022/02/08 01:03:34;;;;;;;3.25;1.90;;;3.50;99.90;;;;;;5013454;28;20029;-54
2022/02/08 01:06:07;;;;;;;4.43;1.50;;;3.50;99.90;;;;;;5013447;28;20380;-51
2022/02/08 01:08:36;;;;;;;4.78;2.30;;;3.50;99.90;;;;;;5014736;28;20084;-50
2022/02/08 01:11:06;;;;;;;5.10;1.63;;;3.50;99.90;;;;;;5014713;28;20033;-52
2022/02/08 01:13:32;;;;;;;4.35;1.45;;;3.50;99.90;;;;;;5014882;28;20105;-53
2022/02/08 01:15:58;;;;;;;4.90;1.92;;;3.60;99.90;;;;;;5014501;28;20109;-51
2022/02/08 01:18:25;;;;;;;2.45;1.45;;;3.60;99.90;;;;;;5013300;28;20360;-52
2022/02/08 01:20:51;;;;;;;2.92;1.17;;;3.50;99.90;;;;;;4996142;28;20122;-49
2022/02/08 01:23:18;;;;;;;4.20;1.80;;;3.50;99.90;;;;;;5014439;28;20042;-52
2022/02/08 01:25:54;;;;;;;4.15;1.45;;;3.50;99.90;;;;;;5014399;28;20026;-51
2022/02/08 01:28:34;;;;;;;4.55;1.63;;;3.50;99.90;;;;;;5028408;28;20054;-51
2022/02/08 01:31:03;;;;;;;3.78;1.52;;;3.60;99.90;;;;;;5014305;28;20033;-53
2022/02/08 01:42:01;;;;;;;3.15;1.45;;;3.70;99.90;;;;;;5014252;28;20048;-48
2022/02/08 01:44:44;;;;;;;5.43;1.60;;;3.70;99.90;;;;;;5014445;28;20113;-52
2022/02/08 01:47:44;;;;;;;7.47;1.65;;;3.70;99.90;;;;;;5012192;28;20045;-51
2022/02/08 01:50:16;;;;;;;3.25;1.42;;;3.60;99.90;;;;;;5015552;28;20497;-50
2022/02/08 01:52:43;;;;;;;2.80;1.20;;;3.60;99.90;;;;;;5012020;28;20037;-53
2022/02/08 01:55:11;;;;;;;3.85;2.10;;;3.60;99.90;;;;;;5061372;28;20045;-50
2022/02/08 01:57:38;;;;;;;2.88;1.55;;;3.60;99.90;;;;;;5014030;28;20474;-51
2022/02/08 02:00:09;;;;;;;2.72;1.23;;;3.60;99.90;;;;;;5013979;28;20088;-52
2022/02/08 02:02:35;;;;;;;3.17;1.30;;;3.60;99.90;;;;;;5028213;28;20034;-53
2022/02/08 02:05:02;;;;;;;1.90;1.30;;;3.60;99.90;;;;;;5013688;28;20486;-51
2022/02/08 02:07:28;;;;;;;6.40;1.85;;;3.50;99.90;;;;;;5013568;28;20468;-48
2022/02/08 02:09:54;;;;;;;4.28;1.98;;;3.60;99.90;;;;;;5013475;28;20057;-54
2022/02/08 02:12:20;;;;;;;4.90;1.55;;;3.70;99.90;;;;;;5044700;28;20121;-51
2022/02/08 02:14:46;;;;;;;3.42;1.65;;;3.70;99.90;;;;;;5013408;28;20109;-50
2022/02/08 02:17:12;;;;;;;5.15;1.25;;;3.70;99.90;;;;;;5010259;28;20041;-47
2022/02/08 02:19:39;;;;;;;4.22;2.05;;;3.70;99.90;;;;;;5011268;28;20041;-52
2022/02/08 02:22:07;;;;;;;5.80;2.03;;;3.70;99.90;;;;;;5044662;28;20033;-50
2022/02/08 02:24:38;;;;;;;4.13;1.80;;;3.70;99.90;;;;;;5013410;28;20045;-52
2022/02/08 02:27:05;;;;;;;2.50;1.70;;;3.80;99.90;;;;;;5013338;28;20073;-50
2022/02/08 02:29:31;;;;;;;4.28;1.73;;;3.80;99.90;;;;;;5013261;28;20129;-50
2022/02/08 02:31:59;;;;;;;2.83;1.48;;;3.80;99.90;;;;;;5044203;28;20045;-48
2022/02/08 02:34:25;;;;;;;5.05;1.92;;;3.80;99.90;;;;;;5061148;28;20041;-55
2022/02/08 02:36:53;;;;;;;5.45;1.80;;;3.90;99.90;;;;;;5013337;28;20068;-48
2022/02/08 02:39:28;;;;;;;6.85;2.55;;;3.90;99.90;;;;;;5013097;28;20030;-52
2022/02/08 02:41:54;;;;;;;6.55;2.65;;;3.90;99.90;;;;;;5061139;28;20045;-50
2022/02/08 02:44:23;;;;;;;4.57;1.70;;;3.80;99.90;;;;;;5013181;28;20026;-52
2022/02/08 02:46:49;;;;;;;3.80;1.50;;;3.80;99.90;;;;;;5013258;28;20454;-50
2022/02/08 02:49:15;;;;;;;6.88;1.90;;;3.80;99.90;;;;;;5012835;28;20030;-52
2022/02/08 02:51:41;;;;;;;4.10;1.58;;;3.80;99.90;;;;;;5013232;28;20721;-54
2022/02/08 02:54:18;;;;;;;5.95;1.92;;;3.80;99.90;;;;;;5061086;28;20037;-51
2022/02/08 02:56:45;;;;;;;5.88;1.75;;;3.80;99.90;;;;;;5013117;28;20509;-53
2022/02/08 02:59:12;;;;;;;4.68;1.83;;;3.90;99.90;;;;;;5011106;28;20049;-50
2022/02/08 03:01:59;;;;;;;8.52;1.90;;;3.90;99.90;;;;;;5015504;28;20088;-53
2022/02/08 03:20:34;;;;;;;3.53;2.10;;;4.10;99.90;;;;;;5016658;28;20053;-50
2022/02/08 03:23:00;;;;;;;6.00;1.85;;;4.20;99.90;;;;;;5017035;28;20450;-50
2022/02/08 03:25:26;;;;;;;3.03;1.70;;;4.20;99.90;;;;;;5030868;28;20124;-50
2022/02/08 03:27:52;;;;;;;6.18;1.73;;;4.20;99.90;;;;;;5030877;28;20050;-51
2022/02/08 03:30:18;;;;;;;4.65;2.15;;;4.20;99.90;;;;;;5016715;28;20621;-48
2022/02/08 03:32:44;;;;;;;5.53;2.50;;;4.10;99.90;;;;;;5030430;28;20026;-49
2022/02/08 03:35:11;;;;;;;6.97;2.10;;;4.10;99.90;;;;;;5016460;28;20030;-53
2022/02/08 03:37:37;;;;;;;3.95;1.75;;;4.10;99.90;;;;;;5016507;28;20457;-51
2022/02/08 03:40:13;;;;;;;3.90;1.52;;;4.00;99.90;;;;;;5030967;28;20545;-53
2022/02/08 03:42:57;;;;;;;6.60;1.90;;;4.00;99.90;;;;;;5014586;28;20057;-52
2022/02/08 03:45:22;;;;;;;5.05;2.17;;;4.00;99.90;;;;;;5016438;28;20065;-52
2022/02/08 03:47:48;;;;;;;3.80;2.47;;;4.00;99.90;;;;;;5016373;28;20038;-50
2022/02/08 03:50:14;;;;;;;5.43;2.22;;;4.10;99.90;;;;;;5016580;28;20084;-48
2022/02/08 03:52:40;;;;;;;3.63;1.83;;;4.00;99.90;;;;;;4997844;28;20471;-53
2022/02/08 03:55:06;;;;;;;6.20;2.20;;;4.00;99.90;;;;;;4997563;28;20042;-51
2022/02/08 03:57:32;;;;;;;6.40;1.60;;;3.90;99.90;;;;;;4997828;28;20097;-49
2022/02/08 03:59:58;;;;;;;3.05;1.77;;;4.00;99.90;;;;;;5015607;28;20470;-49
2022/02/08 04:02:39;;;;;;;3.08;1.55;;;4.00;99.90;;;;;;5016083;28;20030;-49
2022/02/08 04:07:51;;;;;;;6.20;1.70;;;3.80;99.90;;;;;;5015903;28;20033;-53
2022/02/08 04:10:25;;;;;;;4.05;1.92;;;3.70;99.90;;;;;;5016217;28;20048;-52
2022/02/08 04:13:13;;;;;;;7.57;2.00;;;3.70;99.90;;;;;;4997823;28;20084;-52
2022/02/08 04:42:36;;;;;;;4.50;1.67;;;3.20;99.90;;;;;;5000037;28;20088;-54
2022/02/08 04:45:18;;;;;;;2.80;1.02;;;3.20;99.90;;;;;;5029006;28;20121;-51
2022/02/08 04:48:14;;;;;;;5.32;1.55;;;3.20;99.90;;;;;;5015388;28;20401;-52
2022/02/08 04:50:32;;;;;;;7.70;3.33;;;3.10;99.90;;;;;;5015070;28;20417;-50
2022/02/08 04:53:05;;;;;;;10.52;9.18;;;3.20;99.90;;;;;;5015231;28;20113;-53
2022/02/08 05:36:33;;;;;;;4.78;1.83;;;3.50;99.90;;;;;;5027751;28;20057;-52
2022/02/08 05:41:54;;;;;;;9.95;1.90;;;3.60;99.90;;;;;;5025541;28;20056;-53
2022/02/08 05:46:54;;;;;;;3.70;1.35;;;3.70;99.90;;;;;;4994614;28;20153;-50
2022/02/08 05:49:38;;;;;;;7.05;1.85;;;3.70;99.90;;;;;;4994370;28;20457;-51
2022/02/08 05:54:40;;;;;;;9.50;1.65;;;3.90;99.90;;;;;;5014104;28;20060;-51
2022/02/08 05:57:08;;;;;;;4.90;2.00;;;3.90;99.90;;;;;;5011530;28;20577;-53
2022/02/08 05:59:34;;;;;;;6.25;1.95;;;4.20;99.90;;;;;;5010826;28;20057;-52
2022/02/08 06:01:59;;;;;;;6.20;1.85;;;4.10;99.90;;;;;;5010783;28;20074;-51
2022/02/08 06:04:25;;;;;;;6.93;3.22;;;4.20;99.90;;;;;;5011301;28;20037;-50
2022/02/08 06:06:51;;;;;;;18.95;7.22;;;4.30;99.90;;;;;;4994787;28;20030;-50
2022/02/08 06:09:19;;;;;;;7.97;2.95;;;4.30;99.90;;;;;;5011290;28;20048;-53
2022/02/08 06:11:45;;;;;;;5.25;1.80;;;4.40;99.90;;;;;;5011375;28;20091;-49
2022/02/08 06:14:10;;;;;;;4.93;1.95;;;4.60;99.90;;;;;;5011401;28;20113;-52
2022/02/08 06:16:36;;;;;;;5.07;1.88;;;4.50;99.90;;;;;;4994852;28;20033;-51
2022/02/08 06:19:04;;;;;;;9.95;3.10;;;4.60;99.90;;;;;;4978323;28;20061;-49
2022/02/08 06:21:31;;;;;;;4.50;2.00;;;4.70;99.90;;;;;;5011220;28;20029;-48
2022/02/08 06:23:56;;;;;;;11.80;4.13;;;4.80;99.90;;;;;;5011631;28;20037;-53
2022/02/08 06:26:23;;;;;;;14.18;4.13;;;5.20;99.90;;;;;;5010512;28;20033;-52
2022/02/08 06:29:00;;;;;;;8.65;2.67;;;5.90;99.90;;;;;;5013599;28;20371;-54
2022/02/08 06:31:26;;;;;;;8.85;3.03;;;5.90;99.90;;;;;;5012169;28;20065;-55
2022/02/08 06:33:52;;;;;;;9.48;2.92;;;5.70;99.90;;;;;;5012568;28;20127;-53
2022/02/08 06:36:17;;;;;;;7.18;3.25;;;5.70;99.90;;;;;;5013328;28;20030;-54
2022/02/08 06:38:43;;;;;;;7.82;2.30;;;5.70;99.90;;;;;;5012360;28;20041;-52
2022/02/08 06:41:10;;;;;;;3.67;1.50;;;6.10;99.90;;;;;;5010094;28;20117;-46
2022/02/08 06:43:35;;;;;;;3.10;1.88;;;6.70;99.90;;;;;;5009880;28;20157;-52
2022/02/08 06:46:01;;;;;;;6.45;2.83;;;7.40;99.90;;;;;;5012011;28;20108;-58
2022/02/08 06:48:27;;;;;;;4.25;2.03;;;7.70;99.90;;;;;;5011081;28;20444;-61
2022/02/08 06:50:53;;;;;;;5.65;2.30;;;;;;;;;;5011563;28;20018;-60
2022/02/08 06:53:19;;;;;;;8.10;2.72;;;;;;;;;;5009919;28;20038;-61
2022/02/08 06:55:46;;;;;;;5.90;2.03;;;;;;;;;;5010002;28;20034;-61
2022/02/08 06:58:14;;;;;;;10.10;3.35;;;11.80;99.90;;;;;;5010106;28;20042;-62
2022/02/08 07:00:43;;;;;;;8.18;4.00;;;;;;;;;;5011470;28;20036;-61
2022/02/08 07:03:11;;;;;;;9.10;3.28;;;9.70;99.90;;;;;;5009784;28;20084;-60
2022/02/08 07:05:38;;;;;;;9.82;3.42;;;8.60;99.90;;;;;;5010594;28;20126;-60
2022/02/08 07:08:04;;;;;;;12.27;4.72;;;;;;;;;;5011378;28;20529;-59
2022/02/08 07:10:32;;;;;;;6.38;2.10;;;7.40;99.90;;;;;;5011651;28;20102;-56
2022/02/08 07:12:58;;;;;;;7.82;3.58;;;7.50;99.90;;;;;;5011621;28;20529;-52
2022/02/08 07:15:24;;;;;;;15.20;8.63;;;8.20;99.90;;;;;;5009937;28;20129;-50
2022/02/08 07:17:49;;;;;;;10.13;4.82;;;9.50;99.90;;;;;;5011014;28;20385;-51
2022/02/08 07:20:16;;;;;;;8.27;4.18;;;10.70;99.90;;;;;;5011803;28;20421;-52
2022/02/08 07:22:42;;;;;;;10.43;5.00;;;11.20;99.90;;;;;;5009556;28;20040;-53
2022/02/08 07:25:09;;;;;;;7.03;3.50;;;11.70;99.90;;;;;;5011918;28;20084;-53
2022/02/08 07:27:35;;;;;;;10.75;3.88;;;11.40;99.90;;;;;;5011652;28;20054;-52
2022/02/08 07:30:09;;;;;;;7.40;2.95;;;10.30;99.90;;;;;;5010727;28;20088;-51
2022/02/08 07:32:37;;;;;;;8.57;4.22;;;9.50;99.90;;;;;;5052929;28;20394;-51
2022/02/08 07:35:24;;;;;;;7.20;2.63;;;8.70;99.90;;;;;;5011181;28;20057;-53
2022/02/08 07:43:03;;;;;;;11.82;4.47;;;7.60;99.90;;;;;;5010820;28;20029;-52
2022/02/08 07:45:29;;;;;;;22.95;13.02;;;7.20;99.90;;;;;;5011500;28;20068;-52
2022/02/08 07:47:56;;;;;;;15.90;6.72;;;;;;;;;;5012027;28;20045;-52
2022/02/08 07:50:23;;;;;;;15.90;8.65;;;;;;;;;;5014258;28;20038;-52
2022/02/08 07:52:53;;;;;;;243.40;177.13;;;;;;;;;;5015290;28;20030;-51
2022/02/08 07:55:19;;;;;;;13.45;8.27;;;;;;;;;;5014519;28;20030;-52
2022/02/08 07:57:46;;;;;;;15.60;7.28;;;;;;;;;;5015152;28;20041;-52
2022/02/08 08:00:12;;;;;;;10.05;4.60;;;6.40;99.90;;;;;;5012460;28;20449;-52
2022/02/08 08:02:38;;;;;;;7.60;3.70;;;;;;;;;;5012559;28;20664;-52
2022/02/08 08:05:05;;;;;;;8.15;3.72;;;;;;;;;;4995865;28;20370;-51
2022/02/08 08:07:31;;;;;;;6.80;3.92;;;6.40;99.90;;;;;;5010008;28;20057;-52
2022/02/08 08:10:00;;;;;;;7.32;3.50;;;6.30;99.90;;;;;;5011319;28;20045;-52
2022/02/08 08:12:26;;;;;;;8.50;4.50;;;6.40;99.90;;;;;;4995203;28;20112;-52
2022/02/08 08:14:52;;;;;;;10.43;5.80;;;6.90;99.90;;;;;;5012319;28;20473;-53
2022/02/08 08:19:53;;;;;;;10.05;9.25;;;10.00;99.90;;;;;;5009098;28;20081;-52
2022/02/08 08:22:19;;;;;;;10.95;10.02;;;;;;;;;;5011093;28;20034;-54
2022/02/08 08:24:46;;;;;;;13.27;12.02;;;13.50;98.50;;;;;;5010056;28;20030;-56
2022/02/08 08:27:13;;;;;;;22.58;20.88;;;14.80;96.50;;;;;;5009289;28;20542;-54
2022/02/08 08:29:40;;;;;;;322.10;286.40;;;15.30;93.80;;;;;;5010481;28;20042;-56
2022/02/08 08:32:06;;;;;;;125.75;104.65;;;15.20;91.70;;;;;;5010713;28;20070;-53
2022/02/08 08:34:34;;;;;;;818.70;752.03;;;16.10;91.50;;;;;;4992881;28;20481;-55
2022/02/08 08:37:00;;;;;;;842.20;771.47;;;16.10;91.20;;;;;;5010145;28;20026;-56
2022/02/08 08:39:33;;;;;;;6.03;2.88;;;15.70;87.80;;;;;;5010167;28;20044;-53
2022/02/08 08:52:36;;;;;;;5.82;2.63;;;10.40;93.40;;;;;;5014029;28;20022;-52
2022/02/08 08:55:04;;;;;;;17.35;6.32;;;;;;;;;;5013023;28;20397;-50
2022/02/08 08:57:30;;;;;;;13.05;4.10;;;9.40;96.50;;;;;;4995719;28;20045;-53
2022/02/08 08:59:56;;;;;;;7.43;2.45;;;9.60;99.90;;;;;;4995195;28;20033;-52
2022/02/08 09:02:22;;;;;;;9.27;4.25;;;9.20;99.90;;;;;;4995465;28;20037;-51
2022/02/08 09:04:50;;;;;;;11.18;3.88;;;9.10;99.90;;;;;;5010564;28;20084;-51
2022/02/08 09:07:17;;;;;;;10.38;4.78;;;;;;;;;;5012817;28;20042;-49
2022/02/08 09:09:45;;;;;;;8.63;5.78;;;11.50;95.70;;;;;;5008038;28;20409;-53
2022/02/08 09:12:23;;;;;;;8.13;5.85;;;12.10;95.00;;;;;;5009673;28;20063;-52
2022/02/08 09:28:20;;;;;;;10.90;9.95;;;14.70;90.50;;;;;;4993286;28;20049;-52
2022/02/08 09:30:51;;;;;;;9.23;7.93;;;13.90;90.00;;;;;;5012371;28;20176;-48
2022/02/08 09:33:17;;;;;;;16.33;15.00;;;14.70;90.60;;;;;;5011676;28;21450;-50
2022/02/08 09:35:46;;;;;;;10.63;9.43;;;15.40;88.90;;;;;;5008975;28;20088;-48
2022/02/08 09:38:12;;;;;;;20.55;19.23;;;15.00;90.30;;;;;;5009336;28;20045;-52
2022/02/08 09:40:38;;;;;;;7.57;3.30;;;15.90;87.10;;;;;;5011935;28;20022;-53
2022/02/08 09:43:04;;;;;;;7.43;3.50;;;14.70;85.70;;;;;;5009851;28;20041;-51
2022/02/08 09:45:33;;;;;;;7.18;3.90;;;;;;;;;;5009484;28;20045;-52
2022/02/08 09:48:10;;;;;;;10.13;3.83;;;14.10;89.70;;;;;;5009291;28;20434;-53
2022/02/08 09:50:37;;;;;;;8.95;7.30;;;13.90;89.40;;;;;;5011669;28;20045;-50
2022/02/08 09:53:07;;;;;;;12.70;8.98;;;14.10;89.90;;;;;;5009672;28;20041;-50
2022/02/08 09:55:37;;;;;;;19.52;17.83;;;13.80;88.40;;;;;;5011827;28;20032;-50
2022/02/08 09:58:03;;;;;;;14.63;13.27;;;14.50;87.70;;;;;;5011876;28;20060;-51
2022/02/08 10:00:29;;;;;;;11.95;11.05;;;15.40;87.50;;;;;;5011453;28;20026;-49
2022/02/08 10:03:12;;;;;;;10.43;8.27;;;15.30;84.90;;;;;;5009466;28;20048;-50
2022/02/08 10:05:52;;;;;;;10.70;9.25;;;14.80;84.60;;;;;;5011558;28;20026;-50
2022/02/08 10:08:19;;;;;;;32.67;30.27;;;16.30;84.60;;;;;;5008971;28;20125;-51
2022/02/08 10:10:46;;;;;;;10.48;6.25;;;;;;;;;;4989491;28;20429;-50
2022/02/08 10:13:35;;;;;;;9.13;8.27;;;17.10;83.20;;;;;;5008254;28;20393;-50
2022/02/08 10:21:43;;;;;;;9.30;5.10;;;15.40;82.40;;;;;;5010252;28;20041;-50
2022/02/08 10:24:12;;;;;;;11.02;6.90;;;14.60;83.30;;;;;;5008022;28;20079;-50
2022/02/08 10:26:55;;;;;;;9.07;7.43;;;14.20;84.10;;;;;;5010489;28;20077;-51
2022/02/08 10:37:46;;;;;;;16.17;14.95;;;11.70;88.70;;;;;;5022880;28;20067;-53
2022/02/08 10:40:13;;;;;;;15.70;14.63;;;12.40;87.50;;;;;;5002711;28;20473;-55
2022/02/08 10:42:53;;;;;;;26.17;24.45;;;12.90;87.20;;;;;;5009987;28;20462;-54
2022/02/08 10:45:30;;;;;;;19.33;15.65;;;12.90;88.10;;;;;;5008764;28;20038;-54
2022/02/08 10:48:03;;;;;;;20.30;6.57;;;13.60;87.50;;;;;;5011191;28;20053;-54
2022/02/08 10:50:32;;;;;;;4.93;3.03;;;12.90;85.80;;;;;;5010721;28;20037;-53
2022/02/08 10:52:59;;;;;;;17.58;10.32;;;;;;;;;;5009870;28;20030;-53
2022/02/08 11:03:50;;;;;;;24.08;8.80;;;11.80;89.20;;;;;;5010420;28;20083;-52
2022/02/08 11:06:39;;;;;;;6.05;2.13;;;11.20;90.30;;;;;;5008699;28;20049;-52
2022/02/08 11:14:36;;;;;;;7.30;3.58;;;10.90;91.60;;;;;;5005691;28;20041;-53
2022/02/08 11:25:13;;;;;;;10.57;3.15;;;10.00;91.20;;;;;;5025103;28;20030;-47
2022/02/08 11:27:47;;;;;;;21.00;10.60;;;9.70;92.00;;;;;;5007403;28;20073;-48
2022/02/08 11:30:21;;;;;;;4.53;2.30;;;10.50;92.40;;;;;;4993937;28;20177;-49
2022/02/08 11:33:02;;;;;;;7.80;3.25;;;10.60;91.70;;;;;;5004908;28;20125;-50
2022/02/08 11:49:25;;;;;;;10.48;5.45;;;;;;;;;;5015461;28;20065;-50
2022/02/08 11:52:04;;;;;;;9.20;3.28;;;;;;;;;;5015346;28;20116;-50
2022/02/08 11:57:39;;;;;;;4.78;2.58;;;10.00;99.90;;;;;;5015375;28;20044;-51
2022/02/08 12:00:08;;;;;;;9.30;3.80;;;9.70;99.90;;;;;;5015001;28;20124;-50
2022/02/08 12:07:27;;;;;;;9.63;4.05;;;;;;;;;;5014872;28;20116;-51
2022/02/08 12:10:02;;;;;;;41.70;15.55;;;;;;;;;;5013028;28;20129;-50
2022/02/08 12:32:36;;;;;;;5.65;2.42;;;9.60;93.50;;;;;;5015690;28;20409;-48
2022/02/08 12:57:30;;;;;;;6.43;2.80;;;9.50;93.50;;;;;;5016856;28;20045;-49
2022/02/08 13:02:50;;;;;;;6.32;3.20;;;9.30;94.70;;;;;;5015438;28;20032;-51
2022/02/08 14:20:56;;;;;;;7.57;2.90;;;9.70;97.80;;;;;;5012711;28;20045;-49
2022/02/08 14:23:28;;;;;;;9.23;2.20;;;10.10;96.20;;;;;;5013024;28;20034;-48
2022/02/08 14:36:53;;;;;;;20.13;8.65;;;10.40;99.40;;;;;;5010111;28;20060;-46
2022/02/08 15:10:00;;;;;;;59.00;22.23;;;9.20;95.80;;;;;;4935981;29;20042;-44
2022/02/08 15:12:30;;;;;;;9.13;3.92;;;9.50;96.30;;;;;;4932723;29;20505;-45
2022/02/08 15:15:12;;;;;;;58.47;24.25;;;9.60;95.80;;;;;;4924568;29;20040;-45
2022/02/08 15:17:38;;;;;;;17.08;7.70;;;10.00;95.60;;;;;;4935976;29;20040;-44
2022/02/08 15:20:07;;;;;;;6.50;3.03;;;10.10;95.20;;;;;;4936031;29;20036;-44
2022/02/08 15:22:32;;;;;;;71.53;27.85;;;10.10;94.90;;;;;;4935325;29;20059;-50
2022/02/08 15:25:00;;;;;;;41.47;16.48;;;;;;;;;;4934489;29;20055;-52
2022/02/08 15:27:27;;;;;;;62.15;21.70;;;10.20;95.00;;;;;;4935334;29;20183;-52
2022/02/08 15:29:55;;;;;;;29.38;11.13;;;10.20;98.00;;;;;;4931633;29;20056;-43
2022/02/08 15:32:22;;;;;;;10.98;4.80;;;9.90;98.30;;;;;;4941374;29;20055;-52
2022/02/08 15:34:48;;;;;;;8.80;5.03;;;9.90;99.40;;;;;;4966926;28;20520;-52
2022/02/08 15:37:14;;;;;;;22.38;8.43;;;9.90;99.70;;;;;;5010904;28;20045;-52
2022/02/08 15:39:41;;;;;;;41.20;14.15;;;9.80;99.90;;;;;;5007204;28;20026;-48
2022/02/08 15:42:07;;;;;;;18.45;6.50;;;9.60;99.90;;;;;;5011110;28;20030;-59
2022/02/08 15:44:34;;;;;;;20.88;7.47;;;9.60;99.90;;;;;;4977037;28;20038;-51
2022/02/08 15:47:04;;;;;;;16.40;5.65;;;9.50;99.90;;;;;;4995176;28;20050;-50
2022/02/08 15:49:32;;;;;;;36.33;14.38;;;9.50;99.90;;;;;;5027698;28;20440;-52
2022/02/08 15:52:17;;;;;;;27.13;10.07;;;9.20;96.00;;;;;;5014179;28;20088;-51
2022/02/08 15:54:49;;;;;;;20.48;10.00;;;9.10;96.10;;;;;;5024486;28;20108;-52
2022/02/08 16:08:12;;;;;;;38.08;16.33;;;9.00;96.60;;;;;;5003177;28;20034;-49
2022/02/08 16:10:52;;;;;;;37.22;17.73;;;9.00;96.60;;;;;;5013105;28;20413;-48
2022/02/08 16:13:31;;;;;;;45.70;16.40;;;9.00;96.70;;;;;;5013938;28;20424;-51
2022/02/08 16:24:04;;;;;;;20.67;11.73;;;9.00;96.40;;;;;;5013629;28;20478;-50
2022/02/08 16:59:11;;;;;;;15.60;7.80;;;;;;;;;;4922280;29;20039;-52
2022/02/08 17:01:37;;;;;;;28.35;11.70;;;8.20;99.90;;;;;;4905078;29;20056;-50
2022/02/08 17:04:08;;;;;;;41.40;14.75;;;8.10;99.90;;;;;;4922541;29;20053;-51
2022/02/08 17:06:34;;;;;;;27.98;11.73;;;8.00;99.90;;;;;;4953946;28;20083;-52
2022/02/08 17:09:07;;;;;;;33.78;14.57;;;8.00;99.90;;;;;;4969763;28;20491;-53
2022/02/08 17:11:48;;;;;;;43.72;19.75;;;8.00;99.90;;;;;;4968866;28;20035;-49
2022/02/08 17:49:36;;;;;;;6.90;3.17;;;7.50;99.90;;;;;;4989823;28;20134;-48
2022/02/08 17:52:02;;;;;;;6.78;3.15;;;7.50;99.90;;;;;;4991244;28;20508;-48
2022/02/08 17:54:28;;;;;;;8.98;3.80;;;7.50;99.90;;;;;;5009518;28;20045;-50
2022/02/08 17:56:56;;;;;;;8.05;4.25;;;7.50;99.90;;;;;;5009639;28;20041;-51
2022/02/08 17:59:24;;;;;;;10.05;4.20;;;7.60;99.90;;;;;;5009453;28;20099;-52
2022/02/08 18:01:51;;;;;;;13.50;5.10;;;7.60;99.30;;;;;;5009123;28;20069;-52
2022/02/08 18:04:18;;;;;;;7.25;4.60;;;7.70;99.30;;;;;;5009028;28;20041;-51
2022/02/08 18:06:44;;;;;;;11.38;4.60;;;7.80;99.00;;;;;;5011844;28;20033;-51
2022/02/08 18:09:10;;;;;;;13.50;4.95;;;8.00;99.90;;;;;;5011048;28;20044;-49
2022/02/08 18:11:41;;;;;;;8.98;4.38;;;7.90;99.90;;;;;;5011622;28;20033;-47
2022/02/08 18:14:09;;;;;;;9.98;4.88;;;7.90;99.90;;;;;;4992638;28;20042;-52
2022/02/08 18:16:36;;;;;;;9.32;5.07;;;8.00;99.90;;;;;;5011382;28;20394;-54
2022/02/08 18:19:16;;;;;;;8.57;4.75;;;8.00;99.90;;;;;;5011500;28;20033;-50
2022/02/08 18:21:56;;;;;;;13.02;6.38;;;8.10;99.90;;;;;;5011286;28;20041;-51
2022/02/08 18:24:43;;;;;;;16.30;9.07;;;8.10;99.90;;;;;;5011280;28;20474;-50
2022/02/08 19:07:36;;;;;;;23.45;15.07;;;8.10;99.90;;;;;;4969857;28;20097;-51
2022/02/08 19:23:33;;;;;;;19.65;12.32;;;8.00;99.90;;;;;;4969327;28;20092;-51
2022/02/08 19:26:00;;;;;;;15.90;8.05;;;8.10;99.90;;;;;;4969402;28;20435;-51
2022/02/08 19:28:26;;;;;;;12.55;7.13;;;8.10;99.90;;;;;;4969513;28;20055;-51
2022/02/08 19:30:52;;;;;;;14.75;8.23;;;8.10;99.90;;;;;;4969241;28;20577;-51
2022/02/08 19:33:21;;;;;;;14.55;7.00;;;8.10;99.90;;;;;;4969416;28;20035;-51
2022/02/08 19:35:47;;;;;;;10.95;7.22;;;8.00;97.80;;;;;;4969297;28;20047;-51
2022/02/08 19:38:16;;;;;;;12.77;8.07;;;8.00;99.90;;;;;;4969501;28;20031;-51
2022/02/08 19:40:42;;;;;;;12.65;6.32;;;8.00;99.90;;;;;;4971783;28;20034;-50
2022/02/08 19:43:09;;;;;;;14.07;6.82;;;;;;;;;;5012169;28;20045;-51
2022/02/08 19:45:41;;;;;;;10.55;6.35;;;7.90;97.60;;;;;;5013180;28;20029;-50
2022/02/08 19:48:08;;;;;;;12.32;6.57;;;8.00;97.90;;;;;;5014369;28;20041;-52
2022/02/08 19:50:36;;;;;;;13.00;8.50;;;8.00;98.00;;;;;;5013957;28;20042;-48
2022/02/08 19:53:06;;;;;;;11.68;6.68;;;8.00;97.90;;;;;;5014128;28;20470;-54
2022/02/08 19:58:13;;;;;;;10.82;5.97;;;8.20;99.50;;;;;;5013073;28;20084;-50
2022/02/08 20:00:44;;;;;;;9.38;5.10;;;8.20;99.90;;;;;;5013026;28;20044;-45
2022/02/08 20:03:11;;;;;;;9.95;5.75;;;8.10;99.90;;;;;;5010285;28;20446;-46
2022/02/08 20:05:38;;;;;;;9.43;5.50;;;7.90;97.90;;;;;;4992842;28;20445;-50
2022/02/08 20:08:05;;;;;;;13.30;6.75;;;7.90;97.80;;;;;;5009810;28;20107;-53
2022/02/08 20:10:31;;;;;;;10.88;6.40;;;7.90;98.30;;;;;;5011167;28;20053;-49
2022/02/08 20:12:57;;;;;;;11.10;6.28;;;7.80;98.20;;;;;;4987928;28;20610;-51
2022/02/08 20:15:23;;;;;;;10.90;5.60;;;7.90;99.90;;;;;;4991067;28;20038;-51
2022/02/08 20:17:51;;;;;;;14.75;8.57;;;7.90;99.90;;;;;;5006249;28;20042;-63
2022/02/08 20:20:22;;;;;;;13.15;8.68;;;7.90;99.90;;;;;;4991182;28;20050;-47
2022/02/08 20:22:52;;;;;;;8.40;5.72;;;8.00;99.90;;;;;;5004757;28;20038;-53
2022/02/08 20:25:22;;;;;;;12.95;7.32;;;8.10;99.90;;;;;;5009579;28;21363;-54
2022/02/08 20:27:54;;;;;;;13.32;8.25;;;;;;;;;;5008874;28;20078;-54
2022/02/08 20:30:23;;;;;;;;;;;;;;;;;;5028003;28;20057;-54
2022/02/08 20:32:52;;;;;;;8.88;4.57;;;;;;;;;;5010795;28;19910;-54
2022/02/08 20:35:19;;;;;;;7.88;4.85;;;;;;;;;;5010122;28;20026;-52
2022/02/08 20:37:45;;;;;;;11.20;5.55;;;;;;;;;;5012949;28;20092;-50
2022/02/08 20:40:13;;;;;;;10.90;5.45;;;;;;;;;;5013592;28;20026;-53
2022/02/08 20:42:39;;;;;;;10.55;5.60;;;;;;;;;;5013548;28;20109;-53
2022/02/08 20:45:06;;;;;;;20.48;13.23;;;;;;;;;;5026594;28;20042;-54
2022/02/08 20:47:34;;;;;;;17.98;9.75;;;;;;;;;;5012430;28;20041;-55
2022/02/08 20:50:12;;;;;;;13.07;8.15;;;;;;;;;;5011228;28;20124;-53
2022/02/08 20:52:42;;;;;;;15.23;10.38;;;;;;;;;;5011015;28;20112;-54
2022/02/08 20:55:11;;;;;;;12.85;7.25;;;;;;;;;;4993019;28;20482;-49
2022/02/08 20:57:38;;;;;;;14.20;7.13;;;;;;;;;;5010069;28;20041;-50
2022/02/08 21:00:33;;;;;;;11.55;6.68;;;8.00;99.90;;;;;;4999404;28;20034;-48
2022/02/08 21:03:12;;;;;;;10.80;6.47;;;;;;;;;;4976353;28;20065;-51
2022/02/08 21:05:48;;;;;;;9.63;6.15;;;;;;;;;;4984176;28;20485;-59
2022/02/08 21:08:15;;;;;;;9.73;5.15;;;;;;;;;;4997891;28;20170;-53
2022/02/08 21:10:47;;;;;;;9.68;6.35;;;;;;;;;;4996168;28;20129;-56
2022/02/08 21:13:15;;;;;;;9.88;6.03;;;;;;;;;;4995927;28;20125;-49
2022/02/08 21:15:42;;;;;;;11.00;6.22;;;8.00;99.90;;;;;;4964961;28;20100;-50
2022/02/08 21:18:11;;;;;;;14.65;6.25;;;8.10;99.90;;;;;;4997960;28;20048;-55
2022/02/08 21:20:36;;;;;;;12.15;6.38;;;8.20;99.90;;;;;;4984110;28;20517;-53
2022/02/08 21:23:02;;;;;;;16.42;11.15;;;8.10;99.90;;;;;;4949717;28;20038;-49
2022/02/08 21:25:33;;;;;;;12.52;5.10;;;8.10;99.90;;;;;;4982665;28;20580;-49
2022/02/08 21:28:01;;;;;;;12.52;6.40;;;8.10;98.50;;;;;;4983747;28;20097;-53
2022/02/08 21:54:33;;;;;;;9.25;4.82;;;7.90;98.20;;;;;;4914603;29;20059;-54
2022/02/08 21:57:00;;;;;;;10.95;6.15;;;8.00;98.20;;;;;;4914163;29;20040;-54